Time;durP1;ratioP1;P1;durP2;ratioP2;P2;SDS_P1;SDS_P2;PMS_P1;PMS_P2;Temp;Humidity;BMP_temperature;BMP_pressure;BME280_temperature;BME280_humidity;BME280_pressure;Samples;Min_cycle;Max_cycle;Signal;HPM_P1;HPM_P2
2023/09/26 00:01:26;;;;;;;;;;;;;;;;;;4988658;28;4869;-60
2023/09/26 00:03:51;;;;;;;;;;;;;;;;;;4989501;28;4437;-60
2023/09/26 00:06:20;;;;;;;;;;;;;;;;;;4989196;28;4632;-59
2023/09/26 00:08:46;;;;;;;;;;;;;;;;;;5004873;28;1041;-62
2023/09/26 00:11:12;;;;;;;;;;;;;;;;;;4988728;28;5121;-60
2023/09/26 00:13:38;;;;;;;;;;;;;;;;;;4988808;28;5044;-60
2023/09/26 00:16:04;;;;;;;;;;;;;;;;;;4988951;28;4416;-59
2023/09/26 00:18:30;;;;;;;;;;;;;;;;;;4990245;28;4990;-60
2023/09/26 00:20:55;;;;;;;;;;;;;;;;;;5009493;28;1058;-60
2023/09/26 00:23:20;;;;;;;;;;;;;;;;;;5008057;28;4429;-60
2023/09/26 00:25:45;;;;;;;;;;;;;;;;;;5008174;28;5160;-60
2023/09/26 00:28:11;;;;;;;;;;;;;;;;;;5002748;28;5025;-60
2023/09/26 00:30:37;;;;;;;;;;;;;;;;;;5008147;28;4637;-60
2023/09/26 00:33:02;;;;;;;;;;;;;;;;;;5018586;28;5111;-60
2023/09/26 00:35:27;;;;;;;;;;;;;;;;;;5018878;28;1086;-60
2023/09/26 00:37:53;;;;;;;;;;;;;;;;;;5014995;28;5141;-60
2023/09/26 00:40:21;;;;;;;;;;;;;;;;;;5019532;28;4947;-60
2023/09/26 00:42:46;;;;;;;;;;;;;;;;;;4988682;28;4984;-60
2023/09/26 00:45:12;;;;;;;;;;;;;;;;;;4986832;28;4935;-60
2023/09/26 00:47:38;;;;;;;;;;;;;;;;;;4999793;28;1657;-60
2023/09/26 00:50:03;;;;;;;;;;;;;;;;;;5007565;28;4417;-60
2023/09/26 00:52:29;;;;;;;;;;;;;;;;;;5001535;28;5111;-60
2023/09/26 00:54:54;;;;;;;;;;;;;;;;;;4994129;28;4989;-59
2023/09/26 00:57:19;;;;;;;;;;;;;;;;;;5004094;28;4629;-60
2023/09/26 00:59:45;;;;;;;;;;;;;;;;;;4994817;28;1692;-60
2023/09/26 01:02:10;;;;;;;;;;;;;;;;;;5010080;28;5033;-60
2023/09/26 01:04:36;;;;;;;;;;;;;;;;;;4998172;28;5052;-60
2023/09/26 01:07:01;;;;;;;;;;;;;;;;;;5012052;28;4781;-60
2023/09/26 01:09:26;;;;;;;;;;;;;;;;;;5007353;28;5064;-60
2023/09/26 01:11:51;;;;;;;;;;;;;;;;;;5012937;28;1015;-60
2023/09/26 01:14:17;;;;;;;;;;;;;;;;;;5011624;28;4595;-60
2023/09/26 01:16:42;;;;;;;;;;;;;;;;;;5011961;28;4842;-60
2023/09/26 01:19:07;;;;;;;;;;;;;;;;;;5011228;28;5023;-60
2023/09/26 01:21:33;;;;;;;;;;;;;;;;;;5011753;28;5175;-60
2023/09/26 01:23:58;;;;;;;;;;;;;;;;;;5012368;28;1134;-60
2023/09/26 01:26:24;;;;;;;;;;;;;;;;;;4972797;28;4764;-60
2023/09/26 01:28:49;;;;;;;;;;;;;;;;;;5005202;28;4569;-60
2023/09/26 01:31:14;;;;;;;;;;;;;;;;;;5011361;28;4972;-60
2023/09/26 01:33:40;;;;;;;;;;;;;;;;;;5011240;28;5019;-60
2023/09/26 01:36:05;;;;;;;;;;;;;;;;;;5011734;28;5075;-60
2023/09/26 01:38:30;;;;;;;;;;;;;;;;;;4993746;28;1118;-60
2023/09/26 01:40:56;;;;;;;;;;;;;;;;;;4974179;28;5084;-60
2023/09/26 01:43:21;;;;;;;;;;;;;;;;;;4991764;28;4644;-60
2023/09/26 01:45:46;;;;;;;;;;;;;;;;;;4989957;28;4425;-60
2023/09/26 01:48:12;;;;;;;;;;;;;;;;;;5004635;28;4969;-60
2023/09/26 01:50:38;;;;;;;;;;;;;;;;;;5007944;28;1736;-60
2023/09/26 01:53:04;;;;;;;;;;;;;;;;;;4996303;28;5187;-60
2023/09/26 01:55:29;;;;;;;;;;;;;;;;;;5011270;28;4400;-60
2023/09/26 01:57:54;;;;;;;;;;;;;;;;;;5010993;28;4985;-60
2023/09/26 02:00:20;;;;;;;;;;;;;;;;;;5010647;28;4999;-60
2023/09/26 02:02:49;;;;;;;;;;;;;;;;;;5011184;28;1008;-60
2023/09/26 02:05:15;;;;;;;;;;;;;;;;;;5003461;28;5056;-61
2023/09/26 02:07:41;;;;;;;;;;;;;;;;;;4991030;28;5066;-60
2023/09/26 02:10:06;;;;;;;;;;;;;;;;;;4973278;28;4886;-60
2023/09/26 02:12:32;;;;;;;;;;;;;;;;;;4990882;28;5182;-60
2023/09/26 02:14:57;;;;;;;;;;;;;;;;;;4991790;28;1911;-60
2023/09/26 02:17:23;;;;;;;;;;;;;;;;;;4991037;28;5007;-60
2023/09/26 02:19:48;;;;;;;;;;;;;;;;;;5001658;28;4813;-60
2023/09/26 02:22:13;;;;;;;;;;;;;;;;;;5010656;28;5257;-60
2023/09/26 02:24:38;;;;;;;;;;;;;;;;;;5010368;28;4910;-60
2023/09/26 02:27:04;;;;;;;;;;;;;;;;;;5010431;28;5055;-60
2023/09/26 02:29:29;;;;;;;;;;;;;;;;;;5010818;28;1156;-61
2023/09/26 02:31:54;;;;;;;;;;;;;;;;;;5010409;28;4805;-60
2023/09/26 02:34:20;;;;;;;;;;;;;;;;;;4995379;28;5175;-60
2023/09/26 02:36:45;;;;;;;;;;;;;;;;;;4990425;28;5118;-60
2023/09/26 02:39:10;;;;;;;;;;;;;;;;;;4990339;28;5077;-60
2023/09/26 02:41:35;;;;;;;;;;;;;;;;;;4991235;28;2206;-60
2023/09/26 02:44:03;;;;;;;;;;;;;;;;;;4998573;28;4848;-61
2023/09/26 02:46:28;;;;;;;;;;;;;;;;;;5008755;28;4397;-60
2023/09/26 02:48:54;;;;;;;;;;;;;;;;;;4977030;28;5050;-60
2023/09/26 02:51:19;;;;;;;;;;;;;;;;;;5009968;28;4895;-59
2023/09/26 02:53:44;;;;;;;;;;;;;;;;;;5009993;28;5356;-60
2023/09/26 02:56:10;;;;;;;;;;;;;;;;;;5009960;28;4900;-60
2023/09/26 02:58:35;;;;;;;;;;;;;;;;;;5010187;28;4864;-60
2023/09/26 03:01:00;;;;;;;;;;;;;;;;;;5006565;28;4623;-60
2023/09/26 03:03:26;;;;;;;;;;;;;;;;;;4990418;28;4985;-60
2023/09/26 03:05:52;;;;;;;;;;;;;;;;;;5004860;28;1142;-60
2023/09/26 03:08:17;;;;;;;;;;;;;;;;;;5008156;28;4917;-60
2023/09/26 03:10:42;;;;;;;;;;;;;;;;;;5009926;28;4934;-60
2023/09/26 03:13:08;;;;;;;;;;;;;;;;;;5009903;28;5041;-60
2023/09/26 03:15:34;;;;;;;;;;;;;;;;;;5002770;28;5138;-59
2023/09/26 03:17:59;;;;;;;;;;;;;;;;;;4990800;28;4984;-59
2023/09/26 03:20:24;;;;;;;;;;;;;;;;;;5005794;28;1710;-60
2023/09/26 03:22:49;;;;;;;;;;;;;;;;;;5009827;28;4833;-60
2023/09/26 03:25:15;;;;;;;;;;;;;;;;;;5009413;28;4950;-60
2023/09/26 03:27:40;;;;;;;;;;;;;;;;;;5009230;28;4566;-60
2023/09/26 03:30:06;;;;;;;;;;;;;;;;;;4997698;28;5059;-60
2023/09/26 03:32:31;;;;;;;;;;;;;;;;;;4989999;28;1034;-60
2023/09/26 03:34:56;;;;;;;;;;;;;;;;;;4989785;28;5123;-60
2023/09/26 03:37:22;;;;;;;;;;;;;;;;;;4989642;28;5009;-60
2023/09/26 03:39:47;;;;;;;;;;;;;;;;;;4993716;28;4993;-60
2023/09/26 03:42:13;;;;;;;;;;;;;;;;;;5009172;28;5045;-60
2023/09/26 03:44:41;;;;;;;;;;;;;;;;;;5009695;28;1020;-60
2023/09/26 03:47:07;;;;;;;;;;;;;;;;;;5003683;28;4656;-60
2023/09/26 03:49:32;;;;;;;;;;;;;;;;;;5005921;28;4988;-60
2023/09/26 03:51:57;;;;;;;;;;;;;;;;;;5007744;28;4506;-60
2023/09/26 03:54:24;;;;;;;;;;;;;;;;;;5000098;28;5175;-59
2023/09/26 03:56:50;;;;;;;;;;;;;;;;;;5000973;28;1079;-60
2023/09/26 03:59:16;;;;;;;;;;;;;;;;;;4989006;28;4632;-60
2023/09/26 04:01:42;;;;;;;;;;;;;;;;;;5000605;28;5018;-61
2023/09/26 04:04:08;;;;;;;;;;;;;;;;;;5004555;28;5010;-60
2023/09/26 04:06:33;;;;;;;;;;;;;;;;;;4995978;28;4602;-59
2023/09/26 04:08:58;;;;;;;;;;;;;;;;;;5008993;28;1082;-60
2023/09/26 04:11:24;;;;;;;;;;;;;;;;;;5004272;28;4927;-60
2023/09/26 04:13:49;;;;;;;;;;;;;;;;;;4988874;28;4972;-60
2023/09/26 04:16:14;;;;;;;;;;;;;;;;;;4988393;28;4921;-60
2023/09/26 04:18:39;;;;;;;;;;;;;;;;;;4990170;28;4768;-60
2023/09/26 04:21:06;;;;;;;;;;;;;;;;;;5008019;28;4668;-60
2023/09/26 04:23:31;;;;;;;;;;;;;;;;;;5008858;28;1049;-60
2023/09/26 04:25:56;;;;;;;;;;;;;;;;;;5000362;28;4965;-60
2023/09/26 04:28:21;;;;;;;;;;;;;;;;;;5003262;28;4958;-60
2023/09/26 04:30:47;;;;;;;;;;;;;;;;;;5007635;28;4949;-60
2023/09/26 04:33:12;;;;;;;;;;;;;;;;;;5008024;28;4491;-60
2023/09/26 04:35:37;;;;;;;;;;;;;;;;;;4996398;28;2112;-59
2023/09/26 04:38:03;;;;;;;;;;;;;;;;;;5007190;28;5010;-60
2023/09/26 04:40:29;;;;;;;;;;;;;;;;;;4996046;28;4965;-60
2023/09/26 04:42:54;;;;;;;;;;;;;;;;;;4988235;28;4437;-61
2023/09/26 04:45:20;;;;;;;;;;;;;;;;;;5001503;28;4827;-60
2023/09/26 04:47:45;;;;;;;;;;;;;;;;;;4998708;28;1099;-60
2023/09/26 04:50:11;;;;;;;;;;;;;;;;;;5007026;28;4844;-60
2023/09/26 04:52:36;;;;;;;;;;;;;;;;;;4990025;28;5306;-60
2023/09/26 04:55:02;;;;;;;;;;;;;;;;;;4978506;28;5068;-59
2023/09/26 04:57:27;;;;;;;;;;;;;;;;;;4988573;28;5135;-60
2023/09/26 04:59:53;;;;;;;;;;;;;;;;;;4988578;28;1136;-60
2023/09/26 05:02:18;;;;;;;;;;;;;;;;;;4986411;28;4402;-60
2023/09/26 05:04:45;;;;;;;;;;;;;;;;;;5007791;28;5145;-60
2023/09/26 05:07:11;;;;;;;;;;;;;;;;;;5007272;28;4435;-60
2023/09/26 05:09:39;;;;;;;;;;;;;;;;;;4986975;28;4973;-60
2023/09/26 05:12:04;;;;;;;;;;;;;;;;;;4988070;28;4912;-60
2023/09/26 05:14:30;;;;;;;;;;;;;;;;;;4988586;28;2286;-60
2023/09/26 05:16:55;;;;;;;;;;;;;;;;;;4987781;28;4585;-60
2023/09/26 05:19:20;;;;;;;;;;;;;;;;;;4993773;28;4565;-60
2023/09/26 05:21:45;;;;;;;;;;;;;;;;;;5003065;28;5070;-61
2023/09/26 05:24:11;;;;;;;;;;;;;;;;;;5003098;28;4604;-60
2023/09/26 05:26:36;;;;;;;;;;;;;;;;;;4988756;28;1087;-61
2023/09/26 05:29:02;;;;;;;;;;;;;;;;;;5007412;28;4822;-61
2023/09/26 05:31:30;;;;;;;;;;;;;;;;;;4997784;28;5056;-61
2023/09/26 05:33:56;;;;;;;;;;;;;;;;;;5005331;28;5060;-61
2023/09/26 05:36:21;;;;;;;;;;;;;;;;;;4998884;28;5464;-60
2023/09/26 05:38:47;;;;;;;;;;;;;;;;;;4988274;28;997;-61
2023/09/26 05:41:12;;;;;;;;;;;;;;;;;;4988002;28;4924;-60
2023/09/26 05:43:37;;;;;;;;;;;;;;;;;;4990950;28;5009;-60
2023/09/26 05:46:04;;;;;;;;;;;;;;;;;;4987733;28;4469;-60
2023/09/26 05:48:29;;;;;;;;;;;;;;;;;;5021744;28;6173;-60
2023/09/26 05:51:00;;;;;;;;;;;;;;;;;;4998976;28;1141;-60
2023/09/26 05:53:26;;;;;;;;;;;;;;;;;;5014489;28;5310;-60
2023/09/26 05:55:51;;;;;;;;;;;;;;;;;;5010914;28;4898;-61
2023/09/26 05:58:18;;;;;;;;;;;;;;;;;;5010664;28;4871;-60
2023/09/26 06:00:45;;;;;;;;;;;;;;;;;;5006361;28;4637;-61
2023/09/26 06:03:11;;;;;;;;;;;;;;;;;;4998023;28;4484;-60
2023/09/26 06:05:36;;;;;;;;;;;;;;;;;;4975813;28;1199;-61
2023/09/26 06:08:01;;;;;;;;;;;;;;;;;;4971709;28;4674;-60
2023/09/26 06:10:26;;;;;;;;;;;;;;;;;;4971779;28;5137;-61
2023/09/26 06:12:53;;;;;;;;;;;;;;;;;;4971471;28;4435;-61
2023/09/26 06:15:18;;;;;;;;;;;;;;;;;;4953687;28;4466;-59
2023/09/26 06:17:43;;;;;;;;;;;;;;;;;;4971869;28;1087;-60
2023/09/26 06:20:09;;;;;;;;;;;;;;;;;;4982899;28;4952;-60
2023/09/26 06:22:35;;;;;;;;;;;;;;;;;;4990880;28;5041;-61
2023/09/26 06:25:02;;;;;;;;;;;;;;;;;;4991128;28;4963;-60
2023/09/26 06:27:27;;;;;;;;;;;;;;;;;;4990380;28;4957;-61
2023/09/26 06:29:52;;;;;;;;;;;;;;;;;;4989241;28;1372;-60
2023/09/26 06:32:18;;;;;;;;;;;;;;;;;;4983894;28;4974;-61
2023/09/26 06:34:44;;;;;;;;;;;;;;;;;;4971440;28;4379;-60
2023/09/26 06:37:09;;;;;;;;;;;;;;;;;;4971275;28;4930;-60
2023/09/26 06:39:36;;;;;;;;;;;;;;;;;;4971528;28;5022;-60
2023/09/26 06:42:02;;;;;;;;;;;;;;;;;;4971281;28;5097;-60
2023/09/26 06:44:28;;;;;;;;;;;;;;;;;;4971951;28;880;-60
2023/09/26 06:46:54;;;;;;;;;;;;;;;;;;4972151;28;4996;-60
2023/09/26 06:49:19;;;;;;;;;;;;;;;;;;4989492;28;5024;-60
2023/09/26 06:51:45;;;;;;;;;;;;;;;;;;4990239;28;4913;-60
2023/09/26 06:54:10;;;;;;;;;;;;;;;;;;4975930;28;5174;-60
2023/09/26 06:56:35;;;;;;;;;;;;;;;;;;5005062;28;1087;-61
2023/09/26 06:59:01;;;;;;;;;;;;;;;;;;4994918;28;5848;-61
2023/09/26 07:01:26;;;;;;;;;;;;;;;;;;4999771;28;4503;-60
2023/09/26 07:03:51;;;;;;;;;;;;;;;;;;5009828;28;4829;-61
2023/09/26 07:06:16;;;;;;;;;;;;;;;;;;5007986;28;5072;-61
2023/09/26 07:08:43;;;;;;;;;;;;;;;;;;5010628;28;1075;-61
2023/09/26 07:11:09;;;;;;;;;;;;;;;;;;5012291;28;5092;-61
2023/09/26 07:13:34;;;;;;;;;;;;;;;;;;4983511;28;4581;-60
2023/09/26 07:16:00;;;;;;;;;;;;;;;;;;4967422;28;5082;-60
2023/09/26 07:18:25;;;;;;;;;;;;;;;;;;4978703;28;4920;-59
2023/09/26 07:20:50;;;;;;;;;;;;;;;;;;4976273;28;1678;-59
2023/09/26 07:23:16;;;;;;;;;;;;;;;;;;4984505;28;4401;-59
2023/09/26 07:25:42;;;;;;;;;;;;;;;;;;4981814;28;4580;-59
2023/09/26 07:28:07;;;;;;;;;;;;;;;;;;4982268;28;4927;-59
2023/09/26 07:30:32;;;;;;;;;;;;;;;;;;4969986;28;5121;-59
2023/09/26 07:32:58;;;;;;;;;;;;;;;;;;4970535;28;920;-59
2023/09/26 07:35:25;;;;;;;;;;;;;;;;;;4969763;28;4872;-59
2023/09/26 07:37:51;;;;;;;;;;;;;;;;;;4969902;28;4639;-59
2023/09/26 07:40:16;;;;;;;;;;;;;;;;;;4970094;28;5065;-60
2023/09/26 07:42:41;;;;;;;;;;;;;;;;;;4976103;28;5415;-59
2023/09/26 07:45:07;;;;;;;;;;;;;;;;;;4986348;28;4829;-59
2023/09/26 07:47:32;;;;;;;;;;;;;;;;;;4989750;28;1169;-59
2023/09/26 07:49:57;;;;;;;;;;;;;;;;;;4988525;28;4952;-59
2023/09/26 07:52:26;;;;;;;;;;;;;;;;;;4988984;28;4428;-59
2023/09/26 07:54:51;;;;;;;;;;;;;;;;;;4976702;28;4487;-61
2023/09/26 07:57:16;;;;;;;;;;;;;;;;;;4986960;28;4583;-59
2023/09/26 07:59:42;;;;;;;;;;;;;;;;;;4974574;28;1290;-60
2023/09/26 08:02:07;;;;;;;;;;;;;;;;;;4988562;28;4541;-59
2023/09/26 08:04:32;;;;;;;;;;;;;;;;;;4988933;28;4929;-59
2023/09/26 08:06:57;;;;;;;;;;;;;;;;;;4988698;28;5150;-60
2023/09/26 08:09:23;;;;;;;;;;;;;;;;;;4988642;28;4409;-60
2023/09/26 08:11:48;;;;;;;;;;;;;;;;;;4989177;28;1225;-59
2023/09/26 08:14:13;;;;;;;;;;;;;;;;;;4988530;28;5298;-60
2023/09/26 08:16:39;;;;;;;;;;;;;;;;;;4988711;28;4774;-59
2023/09/26 08:19:04;;;;;;;;;;;;;;;;;;4992010;28;4591;-59
2023/09/26 08:21:29;;;;;;;;;;;;;;;;;;4996629;28;5025;-59
2023/09/26 08:23:55;;;;;;;;;;;;;;;;;;5008970;28;1382;-59
2023/09/26 08:26:20;;;;;;;;;;;;;;;;;;5006198;28;4957;-59
2023/09/26 08:28:45;;;;;;;;;;;;;;;;;;5006795;28;5048;-59
2023/09/26 08:31:15;;;;;;;;;;;;;;;;;;5007704;28;5130;-59
2023/09/26 08:33:40;;;;;;;;;;;;;;;;;;5007719;28;5041;-59
2023/09/26 08:36:12;;;;;;;;;;;;;;;;;;5008117;28;5017;-59
2023/09/26 08:38:37;;;;;;;;;;;;;;;;;;5004756;28;1146;-59
2023/09/26 08:41:03;;;;;;;;;;;;;;;;;;4988877;28;4720;-59
2023/09/26 08:43:29;;;;;;;;;;;;;;;;;;5003502;28;5699;-59
2023/09/26 08:45:54;;;;;;;;;;;;;;;;;;4986533;28;5224;-60
2023/09/26 08:48:19;;;;;;;;;;;;;;;;;;5001298;28;5003;-59
2023/09/26 08:50:44;;;;;;;;;;;;;;;;;;5006589;28;1409;-59
2023/09/26 08:53:10;;;;;;;;;;;;;;;;;;5020507;28;4913;-60
2023/09/26 08:55:36;;;;;;;;;;;;;;;;;;5008284;28;5190;-59
2023/09/26 08:58:01;;;;;;;;;;;;;;;;;;5022879;28;5104;-60
2023/09/26 09:00:26;;;;;;;;;;;;;;;;;;5022151;28;5084;-60
2023/09/26 09:02:51;;;;;;;;;;;;;;;;;;5023554;28;952;-60
2023/09/26 09:05:20;;;;;;;;;;;;;;;;;;5007866;28;5038;-59
2023/09/26 09:07:46;;;;;;;;;;;;;;;;;;4995347;28;5034;-59
2023/09/26 09:10:12;;;;;;;;;;;;;;;;;;4988187;28;5109;-60
2023/09/26 09:12:37;;;;;;;;;;;;;;;;;;4988148;28;5927;-60
2023/09/26 09:15:06;;;;;;;;;;;;;;;;;;4987372;28;5039;-60
2023/09/26 09:17:38;;;;;;;;;;;;;;;;;;5010497;28;2303;-61
2023/09/26 09:20:04;;;;;;;;;;;;;;;;;;5010222;28;4586;-60
2023/09/26 09:22:29;;;;;;;;;;;;;;;;;;4993806;28;5030;-61
2023/09/26 09:24:55;;;;;;;;;;;;;;;;;;4996881;28;5088;-60
2023/09/26 09:27:30;;;;;;;;;;;;;;;;;;5011021;28;4423;-61
2023/09/26 09:30:04;;;;;;;;;;;;;;;;;;5011818;28;1107;-61
2023/09/26 09:32:29;;;;;;;;;;;;;;;;;;5011793;28;4884;-61
2023/09/26 09:34:54;;;;;;;;;;;;;;;;;;5006302;28;5065;-60
2023/09/26 09:37:20;;;;;;;;;;;;;;;;;;4973968;28;5029;-61
2023/09/26 09:39:46;;;;;;;;;;;;;;;;;;4991788;28;4397;-60
2023/09/26 09:42:12;;;;;;;;;;;;;;;;;;4991397;28;5303;-60
2023/09/26 09:44:37;;;;;;;;;;;;;;;;;;5006746;28;1051;-60
2023/09/26 09:47:03;;;;;;;;;;;;;;;;;;4991470;28;4967;-60
2023/09/26 09:49:30;;;;;;;;;;;;;;;;;;5009016;28;4475;-62
2023/09/26 09:51:56;;;;;;;;;;;;;;;;;;5009289;28;4800;-60
2023/09/26 09:54:22;;;;;;;;;;;;;;;;;;5025879;28;5172;-60
2023/09/26 09:56:48;;;;;;;;;;;;;;;;;;5026267;28;1220;-60
2023/09/26 09:59:14;;;;;;;;;;;;;;;;;;5009464;28;4995;-60
2023/09/26 10:01:42;;;;;;;;;;;;;;;;;;5010731;28;5413;-61
2023/09/26 10:04:07;;;;;;;;;;;;;;;;;;4996138;28;5078;-60
2023/09/26 10:06:32;;;;;;;;;;;;;;;;;;4991407;28;4393;-60
2023/09/26 10:08:58;;;;;;;;;;;;;;;;;;4991634;28;1054;-60
2023/09/26 10:11:24;;;;;;;;;;;;;;;;;;5006060;28;4995;-61
2023/09/26 10:13:49;;;;;;;;;;;;;;;;;;5011984;28;5121;-61
2023/09/26 10:16:16;;;;;;;;;;;;;;;;;;5025508;28;5002;-61
2023/09/26 10:18:41;;;;;;;;;;;;;;;;;;4993236;28;4876;-61
2023/09/26 10:21:19;;;;;;;;;;;;;;;;;;5010427;28;5190;-60
2023/09/26 10:24:04;;;;;;;;;;;;;;;;;;5010897;28;903;-61
2023/09/26 10:26:29;;;;;;;;;;;;;;;;;;5010569;28;4836;-60
2023/09/26 10:28:54;;;;;;;;;;;;;;;;;;5009656;28;4941;-60
2023/09/26 10:31:20;;;;;;;;;;;;;;;;;;5004383;28;4651;-60
2023/09/26 10:33:54;;;;;;;;;;;;;;;;;;5005657;28;5013;-60
2023/09/26 10:36:19;;;;;;;;;;;;;;;;;;4990909;28;4799;-60
2023/09/26 10:38:56;;;;;;;;;;;;;;;;;;4991320;28;902;-60
2023/09/26 10:41:22;;;;;;;;;;;;;;;;;;4990951;28;4799;-60
2023/09/26 10:43:47;;;;;;;;;;;;;;;;;;5005734;28;4468;-61
2023/09/26 10:46:12;;;;;;;;;;;;;;;;;;4986840;28;4988;-60
2023/09/26 10:48:38;;;;;;;;;;;;;;;;;;5006771;28;5035;-60
2023/09/26 10:51:03;;;;;;;;;;;;;;;;;;5009854;28;5074;-60
2023/09/26 10:53:29;;;;;;;;;;;;;;;;;;5001999;28;5174;-60
2023/09/26 10:55:54;;;;;;;;;;;;;;;;;;5017569;28;4940;-61
2023/09/26 10:58:20;;;;;;;;;;;;;;;;;;5010098;28;5147;-60
2023/09/26 11:00:51;;;;;;;;;;;;;;;;;;4992969;28;5078;-60
2023/09/26 11:03:17;;;;;;;;;;;;;;;;;;4990046;28;5073;-60
2023/09/26 11:05:43;;;;;;;;;;;;;;;;;;4990588;28;1116;-61
2023/09/26 11:08:08;;;;;;;;;;;;;;;;;;5004849;28;4819;-61
2023/09/26 11:10:33;;;;;;;;;;;;;;;;;;5000258;28;5009;-60
2023/09/26 11:12:58;;;;;;;;;;;;;;;;;;5008385;28;5122;-60
2023/09/26 11:15:25;;;;;;;;;;;;;;;;;;4989701;28;4998;-61
2023/09/26 11:17:50;;;;;;;;;;;;;;;;;;4972801;28;1478;-60
2023/09/26 11:20:16;;;;;;;;;;;;;;;;;;5002298;28;4870;-61
2023/09/26 11:22:48;;;;;;;;;;;;;;;;;;5009549;28;5050;-61
2023/09/26 11:25:14;;;;;;;;;;;;;;;;;;5024032;28;4986;-61
2023/09/26 11:27:43;;;;;;;;;;;;;;;;;;5008135;28;4501;-61
2023/09/26 11:30:10;;;;;;;;;;;;;;;;;;5009059;28;4600;-60
2023/09/26 11:32:35;;;;;;;;;;;;;;;;;;5010623;28;1041;-60
2023/09/26 11:35:00;;;;;;;;;;;;;;;;;;4991094;28;4866;-60
2023/09/26 11:37:26;;;;;;;;;;;;;;;;;;5009346;28;4922;-61
2023/09/26 11:39:52;;;;;;;;;;;;;;;;;;4991305;28;4646;-60
2023/09/26 11:42:17;;;;;;;;;;;;;;;;;;4997740;28;5063;-61
2023/09/26 11:44:55;;;;;;;;;;;;;;;;;;4989852;28;1063;-61
2023/09/26 11:47:20;;;;;;;;;;;;;;;;;;4991615;28;4980;-61
2023/09/26 11:49:46;;;;;;;;;;;;;;;;;;5008039;28;4961;-60
2023/09/26 11:52:11;;;;;;;;;;;;;;;;;;5008691;28;5122;-61
2023/09/26 11:54:36;;;;;;;;;;;;;;;;;;5008172;28;5249;-60
2023/09/26 11:57:02;;;;;;;;;;;;;;;;;;4992824;28;1166;-61
2023/09/26 11:59:27;;;;;;;;;;;;;;;;;;4990596;28;1220;-60
2023/09/26 12:01:54;;;;;;;;;;;;;;;;;;4987719;28;4676;-60
2023/09/26 12:04:20;;;;;;;;;;;;;;;;;;4988977;28;4746;-61
2023/09/26 12:06:46;;;;;;;;;;;;;;;;;;4998634;28;4992;-60
2023/09/26 12:09:20;;;;;;;;;;;;;;;;;;5007936;28;1312;-60
2023/09/26 12:11:49;;;;;;;;;;;;;;;;;;4989299;28;5053;-60
2023/09/26 12:14:16;;;;;;;;;;;;;;;;;;4988862;28;4919;-60
2023/09/26 12:16:42;;;;;;;;;;;;;;;;;;4970671;28;4456;-60
2023/09/26 12:19:08;;;;;;;;;;;;;;;;;;4990871;28;5073;-60
2023/09/26 12:21:33;;;;;;;;;;;;;;;;;;5008090;28;4903;-60
2023/09/26 12:23:59;;;;;;;;;;;;;;;;;;5002254;28;1150;-61
2023/09/26 12:26:24;;;;;;;;;;;;;;;;;;5005163;28;4725;-60
2023/09/26 12:28:49;;;;;;;;;;;;;;;;;;5007988;28;5109;-60
2023/09/26 12:31:14;;;;;;;;;;;;;;;;;;5008049;28;4877;-60
2023/09/26 12:33:40;;;;;;;;;;;;;;;;;;5006385;28;4486;-60
2023/09/26 12:36:05;;;;;;;;;;;;;;;;;;5008998;28;1098;-60
2023/09/26 12:38:30;;;;;;;;;;;;;;;;;;4997187;28;4411;-60
2023/09/26 12:40:56;;;;;;;;;;;;;;;;;;4971158;28;5033;-60
2023/09/26 12:43:21;;;;;;;;;;;;;;;;;;5003513;28;4843;-60
2023/09/26 12:45:47;;;;;;;;;;;;;;;;;;4999977;28;4428;-60
2023/09/26 12:48:12;;;;;;;;;;;;;;;;;;5002732;28;1107;-60
2023/09/26 12:50:37;;;;;;;;;;;;;;;;;;5007010;28;4850;-60
2023/09/26 12:53:02;;;;;;;;;;;;;;;;;;4998318;28;5191;-60
2023/09/26 12:55:28;;;;;;;;;;;;;;;;;;5007872;28;5121;-60
2023/09/26 12:57:53;;;;;;;;;;;;;;;;;;5007787;28;4683;-60
2023/09/26 13:00:19;;;;;;;;;;;;;;;;;;5007294;28;2093;-60
2023/09/26 13:02:44;;;;;;;;;;;;;;;;;;4975795;28;4825;-60
2023/09/26 13:05:09;;;;;;;;;;;;;;;;;;4987920;28;4958;-60
2023/09/26 13:07:35;;;;;;;;;;;;;;;;;;4969831;28;5013;-60
2023/09/26 13:10:00;;;;;;;;;;;;;;;;;;4968970;28;4998;-60
2023/09/26 13:12:25;;;;;;;;;;;;;;;;;;4969041;28;4857;-60
2023/09/26 13:14:50;;;;;;;;;;;;;;;;;;4969286;28;1915;-59
2023/09/26 13:17:16;;;;;;;;;;;;;;;;;;4968688;28;5014;-60
2023/09/26 13:19:41;;;;;;;;;;;;;;;;;;4972984;28;4419;-60
2023/09/26 13:22:11;;;;;;;;;;;;;;;;;;4969157;28;4545;-60
2023/09/26 13:24:37;;;;;;;;;;;;;;;;;;4973385;28;4485;-60
2023/09/26 13:27:04;;;;;;;;;;;;;;;;;;5002218;28;1082;-60
2023/09/26 13:29:29;;;;;;;;;;;;;;;;;;4986278;28;4426;-60
2023/09/26 13:31:55;;;;;;;;;;;;;;;;;;4977531;28;4952;-60
2023/09/26 13:34:20;;;;;;;;;;;;;;;;;;4989135;28;5036;-60
2023/09/26 13:36:45;;;;;;;;;;;;;;;;;;4968320;28;4774;-60
2023/09/26 13:39:11;;;;;;;;;;;;;;;;;;4968920;28;1018;-60
2023/09/26 13:41:36;;;;;;;;;;;;;;;;;;4967933;28;5029;-60
2023/09/26 13:44:01;;;;;;;;;;;;;;;;;;4983393;28;5003;-61
2023/09/26 13:46:27;;;;;;;;;;;;;;;;;;4966484;28;4562;-60
2023/09/26 13:48:52;;;;;;;;;;;;;;;;;;4976169;28;4968;-61
2023/09/26 13:51:18;;;;;;;;;;;;;;;;;;4987530;28;1931;-60
2023/09/26 13:53:43;;;;;;;;;;;;;;;;;;4966622;28;5239;-60
2023/09/26 13:56:08;;;;;;;;;;;;;;;;;;4996186;28;4911;-60
2023/09/26 13:58:34;;;;;;;;;;;;;;;;;;4977797;28;5011;-60
2023/09/26 14:00:59;;;;;;;;;;;;;;;;;;5002189;28;4455;-60
2023/09/26 14:03:25;;;;;;;;;;;;;;;;;;4990232;28;4997;-60
2023/09/26 14:05:50;;;;;;;;;;;;;;;;;;5011460;28;876;-60
2023/09/26 14:08:16;;;;;;;;;;;;;;;;;;5010607;28;4611;-60
2023/09/26 14:10:41;;;;;;;;;;;;;;;;;;5010640;28;5323;-60
2023/09/26 14:13:06;;;;;;;;;;;;;;;;;;5010541;28;4471;-60
2023/09/26 14:15:32;;;;;;;;;;;;;;;;;;5008788;28;4971;-59
2023/09/26 14:17:57;;;;;;;;;;;;;;;;;;4992281;28;1098;-61
2023/09/26 14:20:23;;;;;;;;;;;;;;;;;;5017081;28;4559;-60
2023/09/26 14:22:48;;;;;;;;;;;;;;;;;;5010361;28;5001;-60
2023/09/26 14:25:13;;;;;;;;;;;;;;;;;;5010418;28;4463;-60
2023/09/26 14:27:38;;;;;;;;;;;;;;;;;;5010107;28;4953;-59
2023/09/26 14:30:08;;;;;;;;;;;;;;;;;;5008098;28;1138;-60
2023/09/26 14:32:34;;;;;;;;;;;;;;;;;;4990441;28;4885;-59
2023/09/26 14:35:00;;;;;;;;;;;;;;;;;;4990264;28;4412;-59
2023/09/26 14:37:25;;;;;;;;;;;;;;;;;;4990734;28;4657;-59
2023/09/26 14:39:50;;;;;;;;;;;;;;;;;;4990376;28;5023;-60
2023/09/26 14:42:15;;;;;;;;;;;;;;;;;;4990763;28;892;-60
2023/09/26 14:44:41;;;;;;;;;;;;;;;;;;4990480;28;4398;-60
2023/09/26 14:47:06;;;;;;;;;;;;;;;;;;4990966;28;4576;-60
2023/09/26 14:49:32;;;;;;;;;;;;;;;;;;5009326;28;5002;-60
2023/09/26 14:51:57;;;;;;;;;;;;;;;;;;5009657;28;4901;-60
2023/09/26 14:54:22;;;;;;;;;;;;;;;;;;4997231;28;5261;-60
2023/09/26 14:56:47;;;;;;;;;;;;;;;;;;5010219;28;883;-60
2023/09/26 14:59:13;;;;;;;;;;;;;;;;;;4998604;28;4638;-60
2023/09/26 15:01:38;;;;;;;;;;;;;;;;;;4990263;28;5013;-60
2023/09/26 15:04:05;;;;;;;;;;;;;;;;;;4990011;28;4558;-60
2023/09/26 15:06:30;;;;;;;;;;;;;;;;;;4990312;28;4947;-60
2023/09/26 15:08:56;;;;;;;;;;;;;;;;;;4990839;28;1075;-60
2023/09/26 15:11:21;;;;;;;;;;;;;;;;;;4989597;28;5875;-60
2023/09/26 15:13:46;;;;;;;;;;;;;;;;;;4989897;28;4689;-60
2023/09/26 15:16:12;;;;;;;;;;;;;;;;;;4988663;28;4951;-60
2023/09/26 15:18:37;;;;;;;;;;;;;;;;;;4989473;28;4812;-60
2023/09/26 15:21:02;;;;;;;;;;;;;;;;;;5018693;28;1713;-61
2023/09/26 15:23:27;;;;;;;;;;;;;;;;;;4999839;28;4549;-60
2023/09/26 15:25:53;;;;;;;;;;;;;;;;;;5004825;28;4431;-60
2023/09/26 15:28:18;;;;;;;;;;;;;;;;;;4998687;28;5188;-60
2023/09/26 15:30:44;;;;;;;;;;;;;;;;;;4987316;28;4669;-60
2023/09/26 15:33:09;;;;;;;;;;;;;;;;;;4993682;28;1232;-60
2023/09/26 15:35:40;;;;;;;;;;;;;;;;;;4991932;28;5047;-60
2023/09/26 15:38:08;;;;;;;;;;;;;;;;;;5009016;28;4435;-60
2023/09/26 15:40:33;;;;;;;;;;;;;;;;;;4991190;28;4907;-60
2023/09/26 15:42:58;;;;;;;;;;;;;;;;;;4989268;28;4405;-60
2023/09/26 15:45:23;;;;;;;;;;;;;;;;;;4987514;28;4389;-60
2023/09/26 15:47:49;;;;;;;;;;;;;;;;;;4982239;28;1210;-60
2023/09/26 15:50:15;;;;;;;;;;;;;;;;;;4997973;28;4590;-60
2023/09/26 15:52:40;;;;;;;;;;;;;;;;;;5005932;28;5012;-60
2023/09/26 15:55:06;;;;;;;;;;;;;;;;;;5000311;28;5103;-59
2023/09/26 15:57:32;;;;;;;;;;;;;;;;;;4988767;28;4959;-59
2023/09/26 15:59:57;;;;;;;;;;;;;;;;;;4989005;28;1203;-60
2023/09/26 16:02:23;;;;;;;;;;;;;;;;;;4988605;28;4994;-60
2023/09/26 16:04:48;;;;;;;;;;;;;;;;;;4989067;28;4415;-60
2023/09/26 16:07:14;;;;;;;;;;;;;;;;;;4988986;28;4518;-60
2023/09/26 16:09:39;;;;;;;;;;;;;;;;;;4988468;28;4989;-60
2023/09/26 16:12:06;;;;;;;;;;;;;;;;;;4989789;28;1071;-60
2023/09/26 16:14:31;;;;;;;;;;;;;;;;;;4988635;28;4388;-60
2023/09/26 16:16:56;;;;;;;;;;;;;;;;;;4988540;28;4647;-60
2023/09/26 16:19:21;;;;;;;;;;;;;;;;;;4990404;28;4923;-61
2023/09/26 16:21:47;;;;;;;;;;;;;;;;;;5008274;28;4419;-60
2023/09/26 16:24:12;;;;;;;;;;;;;;;;;;4992562;28;1110;-60
2023/09/26 16:26:37;;;;;;;;;;;;;;;;;;5006467;28;4445;-60
2023/09/26 16:29:03;;;;;;;;;;;;;;;;;;5007886;28;4601;-60
2023/09/26 16:31:28;;;;;;;;;;;;;;;;;;5007754;28;5070;-60
2023/09/26 16:33:53;;;;;;;;;;;;;;;;;;5008169;28;4890;-60
2023/09/26 16:36:18;;;;;;;;;;;;;;;;;;5006941;28;1141;-60
2023/09/26 16:38:44;;;;;;;;;;;;;;;;;;4988626;28;4421;-59
2023/09/26 16:41:09;;;;;;;;;;;;;;;;;;4971127;28;5041;-60
2023/09/26 16:43:34;;;;;;;;;;;;;;;;;;4988906;28;5103;-60
2023/09/26 16:46:00;;;;;;;;;;;;;;;;;;4990787;28;4410;-61
2023/09/26 16:48:25;;;;;;;;;;;;;;;;;;5007689;28;5129;-60
2023/09/26 16:50:50;;;;;;;;;;;;;;;;;;5003201;28;1697;-60
2023/09/26 16:53:16;;;;;;;;;;;;;;;;;;4995017;28;5260;-60